Latest Weather Observations for Albany Airport

IDW60801

Issued at 4:05 pm WST Monday 22 September 2014 (issued every 30 minutes, with the page automatically refreshed every 10 minutes)

About weather observations | Map of weather stations | Latest weather observations for WA | Other Formats
Station Details ID: 009999 Name: ALBANY AIRPORT Lat: -34.94 Lon: 117.82 Height: 68.4 m
Data from the previous 72 hours. | See also: Recent months at Albany Airport
Date/Time
WST
Temp
°C
App
Temp
°C
Dew
Point
Rel
Hum
%
Delta-T
°C
Wind Press
QNH
hPa
Press
MSL
hPa
Rain
since 9 am
mm
Dir
 
Spd
km/h
Gust
km/h
Spd
kts
Gust
kts
22/04:00pm 13.4 8.3 3.9 52 4.3 SSW 20 30 11 16 1021.8 - 0.0
22/03:30pm 13.1 7.2 4.1 54 4.1 SW 24 32 13 17 1021.5 - 0.0
22/03:00pm 14.2 8.0 2.4 45 5.2 SW 24 41 13 22 1021.1 1021.3 0.0
22/02:30pm 13.9 7.8 2.6 46 5.0 SW 24 35 13 19 1021.1 - 0.0
22/02:00pm 13.8 6.9 2.7 47 4.9 SW 28 41 15 22 1021.0 - 0.0
22/01:30pm 13.8 7.7 2.7 47 4.9 SSW 24 32 13 17 1020.9 - 0.0
22/01:00pm 13.6 7.0 1.8 44 5.1 SSW 26 35 14 19 1020.9 - 0.0
22/12:30pm 14.2 7.4 0.8 40 5.7 SSW 26 35 14 19 1021.0 - 0.0
22/12:00pm 13.9 6.7 0.7 40 5.6 SW 28 39 15 21 1020.9 1021.1 0.0
22/11:30am 14.1 7.1 1.7 43 5.4 SSW 28 37 15 20 1020.8 - 0.0
22/11:00am 14.4 8.1 3.9 49 4.8 S 26 37 14 20 1020.7 - 0.0
22/10:30am 13.4 7.6 2.5 47 4.8 S 22 32 12 17 1020.6 - 0.0
22/10:00am 13.8 7.7 3.0 48 4.8 S 24 35 13 19 1020.5 - 0.0
22/09:30am 14.2 8.6 3.6 49 4.8 S 22 32 12 17 1020.4 - 0.0
22/09:00am 13.6 7.5 2.8 48 4.8 SSW 24 37 13 20 1020.2 1020.4 13.6
22/08:30am 12.6 6.7 3.7 54 4.0 S 24 41 13 22 1019.9 - 13.6
22/08:00am 12.0 5.5 2.9 53 4.0 S 26 37 14 20 1019.4 - 13.6
22/07:30am 11.6 6.5 4.3 61 3.3 S 20 30 11 16 1018.7 - 13.6
22/07:00am 10.5 5.3 5.7 72 2.2 S 22 39 12 21 1018.3 - 13.6
22/06:30am 10.4 5.9 7.0 79 1.6 S 20 33 11 18 1017.6 - 13.6
22/06:00am 9.8 5.5 7.7 87 1.0 S 20 32 11 17 1017.1 1017.3 13.4
22/05:48am 9.5 3.6 7.6 88 0.9 S 28 44 15 24 1017.0 - 13.4
22/05:43am 10.2 3.4 7.0 80 1.5 S 32 44 17 24 1016.9 - 13.2
22/05:30am 9.8 7.3 8.1 89 0.8 S 11 15 6 8 1016.3 - 13.2
22/05:00am 10.2 6.8 7.7 84 1.2 S 15 24 8 13 1016.0 - 12.6
22/04:30am 10.3 6.2 8.0 86 1.1 S 19 32 10 17 1015.2 - 12.6
22/04:29am 10.4 6.4 8.4 87 1.0 S 19 32 10 17 1015.2 - 12.6
22/04:03am 10.4 6.2 8.4 87 1.0 S 20 33 11 18 1014.8 - 11.2
22/04:00am 10.5 6.3 8.2 86 1.1 S 20 33 11 18 1014.7 - 11.0
22/03:30am 11.6 7.7 7.0 73 2.2 S 17 30 9 16 1014.2 - 10.6
22/03:00am 11.1 6.8 6.9 75 2.0 S 19 24 10 13 1013.8 1013.9 10.6
22/02:30am 11.8 7.2 6.5 70 2.5 SSW 20 28 11 15 1013.5 - 10.6
22/02:00am 11.7 7.3 6.4 70 2.5 SSW 19 28 10 15 1014.0 - 10.6
22/01:30am 11.7 6.5 7.4 75 2.1 SSW 24 35 13 19 1013.7 - 10.6
22/01:00am 12.0 6.8 5.3 63 3.1 SSW 22 30 12 16 1013.8 - 10.6
22/12:30am 12.0 7.8 5.6 65 3.0 S 17 28 9 15 1013.8 - 10.6
22/12:00am 12.3 6.6 4.9 60 3.4 SSW 24 35 13 19 1013.6 1013.7 10.6
 
Date/Time
WST
Temp
°C
App
Temp
°C
Dew
Point
Rel
Hum
%
Delta-T
°C
Wind Press
QNH
hPa
Press
MSL
hPa
Rain
since 9 am
mm
Dir
 
Spd
km/h
Gust
km/h
Spd
kts
Gust
kts
21/11:30pm 12.2 5.6 4.0 57 3.7 S 28 37 15 20 1012.9 - 10.6
21/11:00pm 12.3 6.0 3.9 56 3.8 SSW 26 41 14 22 1012.8 - 10.6
21/10:30pm 12.2 6.5 5.1 62 3.3 S 24 35 13 19 1013.4 - 10.6
21/10:00pm 12.0 5.7 5.6 65 3.0 SSW 28 37 15 20 1013.1 - 10.6
21/09:30pm 11.9 5.8 6.4 69 2.6 SSW 28 37 15 20 1013.0 - 10.6
21/09:00pm 12.0 7.5 6.8 70 2.5 SSW 20 32 11 17 1012.7 1012.8 10.6
21/08:30pm 12.2 6.6 7.2 71 2.4 SSW 26 41 14 22 1012.2 - 10.6
21/08:00pm 12.1 6.9 8.7 80 1.7 SSW 26 39 14 21 1011.7 - 10.6
21/07:30pm 12.1 6.9 8.7 80 1.7 SSW 26 35 14 19 1010.6 - 10.6
21/07:00pm 11.9 5.7 9.5 85 1.2 SSW 32 41 17 22 1010.1 - 10.6
21/06:55pm 11.8 6.0 9.6 86 1.1 SSW 30 41 16 22 1010.1 - 10.6
21/06:35pm 12.0 6.8 10.1 88 1.0 SSW 28 44 15 24 1009.2 - 10.6
21/06:30pm 11.8 7.1 10.6 92 0.6 SW 26 41 14 22 1009.0 - 10.6
21/06:20pm 11.9 7.2 10.7 92 0.6 SW 26 39 14 21 1008.6 - 10.6
21/06:06pm 12.1 6.6 10.4 89 0.9 SSW 30 43 16 23 1007.7 - 10.4
21/06:00pm 12.1 6.9 10.4 89 0.9 SW 28 43 15 23 1007.4 1007.6 10.4
21/05:55pm 12.1 7.9 11.0 93 0.6 SW 24 35 13 19 1007.5 - 10.4
21/05:31pm 12.3 8.3 11.7 96 0.3 SW 24 35 13 19 1007.1 - 9.6
21/05:30pm 12.3 8.3 11.7 96 0.3 SW 24 35 13 19 1007.1 - 9.4
21/05:28pm 12.5 8.9 11.8 95 0.4 WSW 22 35 12 19 1007.0 - 9.2
21/05:00pm 12.8 11.1 12.4 97 0.2 WSW 13 17 7 9 1006.2 - 8.6
21/04:30pm 12.8 10.6 12.2 96 0.3 WSW 15 19 8 10 1006.1 - 7.6
21/04:00pm 13.2 10.8 12.5 95 0.4 WSW 17 24 9 13 1005.4 - 6.2
21/03:49pm 13.3 10.6 12.8 97 0.3 WSW 19 24 10 13 1005.2 - 5.6
21/03:38pm 13.4 10.4 12.7 95 0.4 WSW 20 28 11 15 1004.8 - 5.0
21/03:30pm 13.5 11.2 13.0 97 0.3 WSW 17 22 9 12 1004.7 - 4.8
21/03:26pm 13.6 11.0 13.1 97 0.3 WSW 19 24 10 13 1004.5 - 4.8
21/03:23pm 13.6 11.0 13.1 97 0.3 WSW 19 26 10 14 1004.5 - 4.6
21/03:00pm 14.1 11.6 13.4 96 0.4 W 19 26 10 14 1004.5 1004.7 3.2
21/02:50pm 14.1 11.4 13.4 96 0.4 WSW 20 26 11 14 1004.1 - 2.6
21/02:37pm 14.2 11.4 13.3 94 0.5 W 20 28 11 15 1004.8 - 1.8
21/02:30pm 14.3 11.6 13.6 96 0.4 W 20 28 11 15 1004.3 - 1.8
21/02:22pm 14.3 11.3 13.6 96 0.4 WSW 22 35 12 19 1003.9 - 1.8
21/02:10pm 14.3 10.9 13.6 96 0.4 W 24 33 13 18 1003.9 - 1.6
21/02:00pm 14.2 10.7 13.5 96 0.4 W 24 32 13 17 1004.0 - 1.2
21/01:30pm 14.4 8.8 13.3 93 0.6 WSW 35 46 19 25 1003.0 - 0.4
21/01:00pm 15.1 10.2 13.7 91 0.8 WSW 32 43 17 23 1002.0 - 0.0
21/12:48pm 15.6 9.5 14.2 91 0.8 W 39 57 21 31 1002.2 - 0.0
21/12:32pm 17.4 10.2 13.2 76 2.4 W 43 61 23 33 1001.8 - 0.0
21/12:28pm 18.2 10.3 12.7 70 3.1 WSW 46 61 25 33 1001.5 - 0.0
21/12:00pm 24.8 14.5 4.9 27 10.1 NNW 48 69 26 37 1000.5 1000.6 0.0
21/11:30am 25.7 14.9 4.0 24 10.8 N 50 82 27 44 1000.4 - 0.0
21/11:00am 25.6 16.1 4.8 26 10.5 NNW 44 67 24 36 1000.7 - 0.0
21/10:34am 25.7 18.1 5.8 28 10.3 N 35 59 19 32 1000.8 - 0.0
21/10:30am 25.6 17.3 6.3 29 10.0 N 39 56 21 30 1000.7 - 0.0
21/10:11am 25.1 16.6 6.9 31 9.5 N 41 59 22 32 1001.0 - 0.0
21/10:00am 24.5 15.9 6.7 32 9.3 N 41 57 22 31 1001.3 - 0.0
21/09:55am 24.6 17.2 8.5 36 8.7 N 37 56 20 30 1001.4 - 0.0
21/09:30am 23.4 15.1 7.7 36 8.3 N 41 57 22 31 1001.8 - 0.0
21/09:00am 22.5 16.4 9.7 44 7.0 N 32 48 17 26 1002.4 1002.6 0.0
21/08:38am 21.8 16.0 9.4 45 6.7 NNE 30 48 16 26 1002.9 - 0.0
21/08:30am 21.4 15.6 9.6 47 6.4 N 30 46 16 25 1003.0 - 0.0
21/08:00am 20.4 15.1 9.9 51 5.7 NNE 28 37 15 20 1003.4 - 0.0
21/07:30am 19.9 13.7 9.2 50 5.7 N 32 43 17 23 1003.8 - 0.0
21/07:19am 19.0 12.9 9.6 54 5.0 N 32 44 17 24 1004.1 - 0.0
21/07:00am 16.1 13.0 10.3 68 3.1 NE 17 24 9 13 1004.5 - 0.0
21/06:30am 14.6 12.1 9.8 73 2.5 NE 13 17 7 9 1005.0 - 0.0
21/06:00am 14.9 12.5 9.9 72 2.6 NE 13 20 7 11 1005.2 1005.4 0.0
21/05:30am 14.4 12.4 10.2 76 2.2 NE 11 17 6 9 1005.5 - 0.0
21/05:00am 14.7 11.6 10.3 75 2.3 NE 17 22 9 12 1005.1 - 0.0
21/04:30am 13.8 11.9 10.4 80 1.8 NE 11 15 6 8 1005.4 - 0.0
21/04:00am 13.6 11.6 10.1 79 1.8 NNE 11 13 6 7 1005.7 - 0.0
21/03:30am 14.2 12.0 10.8 80 1.8 NE 13 15 7 8 1005.4 - 0.0
21/03:00am 15.8 13.5 10.3 70 2.9 NE 13 17 7 9 1005.8 1006.0 0.0
21/02:30am 14.9 13.1 10.8 76 2.2 NNE 11 13 6 7 1006.7 - 0.0
21/02:00am 15.4 13.2 10.9 74 2.4 N 13 17 7 9 1007.1 - 0.0
21/01:30am 17.2 13.5 9.6 61 4.0 N 19 24 10 13 1007.5 - 0.0
21/01:00am 18.3 14.9 9.2 55 4.8 NNW 17 26 9 14 1007.8 - 0.0
21/12:30am 17.8 14.9 8.3 53 4.9 NNW 13 20 7 11 1008.1 - 0.0
21/12:00am 18.4 15.1 8.1 51 5.3 NNW 15 19 8 10 1008.1 1008.3 0.0
 
Date/Time
WST
Temp
°C
App
Temp
°C
Dew
Point
Rel
Hum
%
Delta-T
°C
Wind Press
QNH
hPa
Press
MSL
hPa
Rain
since 9 am
mm
Dir
 
Spd
km/h
Gust
km/h
Spd
kts
Gust
kts
20/11:30pm 17.8 14.6 8.3 53 4.9 NNW 15 17 8 9 1008.3 - 0.0
20/11:00pm 20.0 15.6 7.6 44 6.4 NNW 20 28 11 15 1008.5 - 0.0
20/10:30pm 18.7 15.0 9.5 55 4.9 NNW 19 24 10 13 1008.4 - 0.0
20/10:00pm 16.2 14.9 12.6 79 2.0 NE 11 15 6 8 1007.5 - 0.0
20/09:30pm 16.5 14.9 12.9 79 2.0 NE 13 15 7 8 1007.7 - 0.0
20/09:00pm 16.3 15.3 13.5 83 1.6 NE 11 15 6 8 1007.9 1008.1 0.0
20/08:30pm 17.4 15.2 13.3 77 2.3 ENE 17 19 9 10 1008.2 - 0.0
20/08:00pm 18.6 15.9 12.9 69 3.2 ENE 19 22 10 12 1008.6 - 0.0
20/07:30pm 19.5 16.8 12.8 65 3.8 ENE 19 24 10 13 1008.9 - 0.0
20/07:00pm 20.4 18.6 9.6 50 5.8 ENE 9 13 5 7 1009.0 - 0.0
20/06:30pm 23.0 21.0 8.8 40 7.6 NNE 9 11 5 6 1009.1 - 0.0
20/06:00pm 23.0 20.5 9.8 43 7.2 N 13 17 7 9 1009.3 1009.5 0.0
20/05:30pm 25.7 22.3 9.3 35 9.0 N 17 22 9 12 1009.4 - 0.0
20/05:00pm 27.9 23.6 8.0 28 10.8 N 20 26 11 14 1009.3 - 0.0
20/04:30pm 28.5 24.1 9.0 29 10.8 N 22 26 12 14 1009.6 - 0.0
20/04:00pm 28.6 23.9 9.4 30 10.7 N 24 32 13 17 1009.6 - 0.0
20/03:30pm 28.8 23.4 9.5 30 10.8 N 28 37 15 20 1010.0 - 0.0
20/03:00pm 29.0 25.6 11.1 33 10.3 N 20 32 11 17 1010.6 1010.8 0.0
20/02:30pm 28.5 23.7 10.3 32 10.3 N 26 41 14 22 1011.2 - 0.0
20/02:00pm 28.5 24.2 10.8 33 10.1 N 24 43 13 23 1011.7 - 0.0
20/01:30pm 27.9 22.7 10.4 33 9.9 N 28 37 15 20 1012.1 - 0.0
20/01:00pm 28.0 24.1 12.2 37 9.2 N 24 39 13 21 1012.5 - 0.0
20/12:30pm 27.3 23.8 12.1 39 8.8 NNE 22 30 12 16 1013.1 - 0.0
20/12:00pm 25.7 21.6 11.5 41 8.1 NNE 24 35 13 19 1013.7 1013.8 0.0
20/11:30am 24.2 20.2 11.9 46 7.0 NE 24 33 13 18 1014.2 - 0.0
20/11:00am 23.4 19.4 11.7 47 6.6 NNE 24 33 13 18 1014.8 - 0.0
20/10:30am 21.5 16.8 10.8 50 5.9 NE 26 39 14 21 1015.4 - 0.0
20/10:00am 20.2 16.6 10.7 54 5.2 NNE 20 28 11 15 1016.2 - 0.0
20/09:30am 18.4 15.0 10.6 60 4.2 ENE 19 28 10 15 1016.8 - 0.0
20/09:00am 16.9 13.2 10.3 65 3.5 NE 20 26 11 14 1017.3 1017.5 0.0
20/08:30am 15.6 12.4 10.1 70 2.9 NE 17 26 9 14 1017.9 - 0.0
20/08:00am 14.0 10.6 10.4 79 1.9 NE 19 26 10 14 1018.1 - 0.0
20/07:30am 13.0 9.6 10.5 85 1.3 ENE 19 24 10 13 1018.1 - 0.0
20/07:00am 12.0 8.6 10.5 90 0.8 NE 19 24 10 13 1018.5 - 0.0
20/06:30am 11.8 8.1 10.2 90 0.8 NE 20 30 11 16 1018.7 - 0.0
20/06:00am 11.8 8.3 10.2 90 0.8 NE 19 24 10 13 1018.6 1018.8 0.0
20/05:30am 11.9 8.5 10.7 92 0.6 NE 19 24 10 13 1018.9 - 0.0
20/05:00am 12.1 8.8 10.8 92 0.7 NE 19 26 10 14 1019.2 - 0.0
20/04:30am 12.3 9.0 10.8 90 0.8 NE 19 26 10 14 1019.3 - 0.0
20/04:00am 12.2 9.0 11.1 93 0.6 NE 19 26 10 14 1019.5 - 0.0
20/03:30am 12.0 9.0 10.8 92 0.6 NE 17 22 9 12 1019.5 - 0.0
20/03:00am 11.8 9.6 10.8 94 0.5 NE 13 19 7 10 1019.8 1020.0 0.0
20/02:30am 12.0 8.7 10.8 92 0.6 NE 19 24 10 13 1020.0 - 0.0
20/02:00am 12.1 9.1 10.8 92 0.7 NE 17 22 9 12 1020.3 - 0.0
20/01:30am 11.9 8.5 10.5 91 0.7 ENE 19 20 10 11 1020.5 - 0.0
20/01:00am 11.9 8.9 10.5 91 0.7 ENE 17 20 9 11 1020.8 - 0.0
20/12:30am 12.7 9.7 10.8 88 1.0 NE 17 22 9 12 1020.9 - 0.0
20/12:00am 12.6 9.7 10.9 89 0.9 NE 17 22 9 12 1021.0 1021.2 0.0
 
Date/Time
WST
Temp
°C
App
Temp
°C
Dew
Point
Rel
Hum
%
Delta-T
°C
Wind Press
QNH
hPa
Press
MSL
hPa
Rain
since 9 am
mm
Dir
 
Spd
km/h
Gust
km/h
Spd
kts
Gust
kts
19/11:30pm 12.4 9.5 10.9 90 0.8 NE 17 24 9 13 1021.2 - 0.0
19/11:00pm 12.0 9.4 10.8 92 0.6 ENE 15 19 8 10 1021.4 - 0.0
19/10:30pm 12.5 9.7 11.2 92 0.7 ENE 17 20 9 11 1021.6 - 0.0
19/10:00pm 12.6 10.2 11.3 92 0.7 ENE 15 20 8 11 1021.8 - 0.0
19/09:30pm 12.4 10.3 11.3 93 0.6 ENE 13 15 7 8 1022.2 - 0.0
19/09:00pm 12.2 10.5 11.1 93 0.6 ENE 11 13 6 7 1022.4 1022.6 0.0
19/08:30pm 13.0 11.3 11.1 88 1.0 E 11 13 6 7 1022.5 - 0.0
19/08:00pm 13.0 10.9 11.1 88 1.0 ENE 13 15 7 8 1022.5 - 0.0
19/07:30pm 13.2 11.4 10.9 86 1.2 E 11 11 6 6 1022.3 - 0.0
19/07:00pm 13.9 12.6 11.3 84 1.4 E 9 11 5 6 1022.1 - 0.0
19/06:30pm 14.1 12.1 11.5 84 1.4 E 13 15 7 8 1021.7 - 0.0
19/06:00pm 15.1 13.1 11.4 78 2.0 ESE 13 17 7 9 1021.4 1021.6 0.0
19/05:30pm 16.3 14.4 11.9 75 2.4 ESE 13 19 7 10 1021.2 - 0.0
19/05:00pm 17.1 14.0 11.6 70 3.0 ESE 19 24 10 13 1020.9 - 0.0
19/04:30pm 18.3 15.7 12.0 66 3.5 SE 17 20 9 11 1020.7 - 0.0

Other Formats:

Comma delimited format used in spreadsheet applications
http://www.bom.gov.au/fwo/IDW60801/IDW60801.94802.axf

JavaScript Object Notation format (JSON) in row-major order
http://www.bom.gov.au/fwo/IDW60801/IDW60801.94802.json